Latest Coastal Weather Observations for Troughton Island

IDD60701

Issued at 7:51 am CST Monday 30 March 2015 (issued every 10 minutes, with the page automatically refreshed every 10 minutes)

About coastal observations | Map of coastal stations | Coastal observations for NT | Marine services | Other Formats
Station Details ID: 001007 Name: TROUGHTON ISLAND Lat: -13.75 Lon: 126.15 Height: 6.0 m
Data from the previous 72 hours. | See also: Recent months at Troughton Island
Date/Time
CST
Temp

°C
Wind Pressure Rain
since 9am
mm
Weather Cloud Vis
km
Sea
Height
m
Swell
Dir
 
Speed
knots
Gust
knots
hPa Trend Height
m
Period
s
Dir
30/07:30am 27.7 S 6 7 1012.7 - 0.0 - - - - - - -
30/07:00am 27.7 SSW 6 8 1012.6 - 0.0 - - - - - - -
30/06:30am 27.5 S 6 6 1012.3 - 0.0 - - - - - - -
30/06:00am 27.3 SSE 5 6 1011.9 - 0.0 - - - - - - -
30/05:30am 27.2 SSE 5 6 1011.5 - 0.0 - - - - - - -
30/05:00am 27.3 CALM 0 0 1011.2 - 0.0 - - - - - - -
30/04:30am 27.1 CALM 0 0 1010.9 - 0.0 - - - - - - -
30/04:00am 27.2 CALM 0 3 1010.9 - 0.0 - - - - - - -
30/03:30am 27.6 NNE 4 5 1010.7 - 0.0 - - - - - - -
30/03:00am 28.2 N 5 6 1010.6 - 0.0 - - - - - - -
30/02:30am 28.0 NNE 2 5 1010.9 - 0.0 - - - - - - -
30/02:00am 27.6 CALM 0 3 1011.4 - 0.0 - - - - - - -
30/01:30am 27.8 NE 4 5 1011.8 - 0.0 - - - - - - -
30/01:00am 28.0 NE 6 7 1012.0 - 0.0 - - - - - - -
30/12:30am 28.0 NE 6 7 1012.4 - 0.0 - - - - - - -
30/12:00am 28.1 NNE 6 7 1012.8 - 0.0 - - - - - - -
 
Date/Time
CST
Temp

°C
Wind Pressure Rain
since 9am
mm
Weather Cloud Vis
km
Sea
Height
m
Swell
Dir
 
Speed
knots
Gust
knots
hPa Trend Height
m
Period
s
Dir
29/11:30pm 28.2 NE 7 8 1012.9 - 0.0 - - - - - - -
29/11:00pm 28.3 NE 7 8 1013.1 - 0.0 - - - - - - -
29/10:30pm 28.3 NE 6 7 1013.2 - 0.0 - - - - - - -
29/10:00pm 28.4 NE 6 7 1013.2 - 0.0 - - - - - - -
29/09:30pm 28.4 NNE 4 5 1013.3 - 0.0 - - - - - - -
29/09:00pm 28.6 NNE 4 5 1013.2 - 0.0 - - - - - - -
29/08:30pm 28.7 NNE 4 6 1012.9 - 0.0 - - - - - - -
29/08:00pm 28.9 N 5 6 1012.7 - 0.0 - - - - - - -
29/07:30pm 29.0 N 6 8 1012.3 - 0.0 - - - - - - -
29/07:00pm 29.0 N 6 8 1012.0 - 0.0 - - - - - - -
29/06:30pm 29.6 N 5 7 1011.8 - 0.0 - - - - - - -
29/06:00pm 29.6 N 6 7 1011.8 - 0.0 - - - - - - -
29/05:30pm 29.7 N 5 8 1011.7 - 0.0 - - - - - - -
29/05:00pm 29.8 N 5 7 1011.6 - 0.0 - - - - - - -
29/04:30pm 30.4 NNE 5 7 1011.5 - 0.0 - - - - - - -
29/04:00pm 30.3 NNE 6 7 1011.6 - 0.0 - - - - - - -
29/03:30pm 30.1 NE 6 7 1011.8 - 0.0 - - - - - - -
29/03:00pm 30.3 NE 5 7 1011.9 - 0.0 - - - - - - -
29/02:30pm 30.4 ENE 6 8 1012.2 - 0.0 - - - - - - -
29/02:00pm 30.5 ENE 6 8 1012.5 - 0.0 - - - - - - -
29/01:30pm 30.3 ENE 7 9 1012.7 - 0.0 - - - - - - -
29/01:00pm 30.6 ENE 6 8 1013.0 - 0.0 - - - - - - -
29/12:30pm 30.1 ENE 7 8 1013.4 - 0.0 - - - - - - -
29/12:00pm 30.1 E 7 8 1013.6 - 0.0 - - - - - - -
29/11:30am 30.1 E 6 8 1014.0 - 0.0 - - - - - - -
29/11:00am 30.2 E 5 7 1014.3 - 0.0 - - - - - - -
29/10:30am 29.9 E 6 7 1014.0 - 6.0 - - - - - - -
29/10:00am 29.6 ESE 6 7 1014.0 - 6.0 - - - - - - -
29/09:30am 29.4 E 6 7 1013.9 - 6.0 - - - - - - -
29/09:00am 29.1 E 6 7 1013.7 - 6.0 - - - - - - -
29/08:30am 28.6 E 7 9 1013.3 - 6.0 - - - - - - -
29/08:00am 28.1 E 7 8 1012.8 - 6.0 - - - - - - -
29/07:30am 27.3 E 7 8 1012.3 - 6.0 - - - - - - -
29/07:00am 27.0 ESE 8 9 1012.0 - 6.0 - - - - - - -
29/06:30am 27.3 E 8 9 1011.7 - 6.0 - - - - - - -
29/06:00am 27.3 E 8 10 1011.4 - 6.0 - - - - - - -
29/05:30am 27.2 E 8 9 1011.2 - 6.0 - - - - - - -
29/05:00am 27.2 E 9 10 1010.9 - 6.0 - - - - - - -
29/04:30am 27.0 ESE 9 11 1010.8 - 6.0 - - - - - - -
29/04:00am 27.3 E 10 12 1011.2 - 6.0 - - - - - - -
29/03:30am 27.4 E 10 12 1011.3 - 6.0 - - - - - - -
29/03:00am 27.4 E 11 14 1011.5 - 6.0 - - - - - - -
29/02:30am 27.6 E 10 11 1011.7 - 6.0 - - - - - - -
29/02:00am 27.4 E 10 12 1012.1 - 6.0 - - - - - - -
29/01:30am 27.5 E 10 13 1012.4 - 6.0 - - - - - - -
29/01:00am 27.1 E 11 14 1012.8 - 6.0 - - - - - - -
29/12:30am 27.0 E 13 15 1012.8 - 6.0 - - - - - - -
29/12:00am 27.0 ESE 14 17 1012.7 - 6.0 - - - - - - -
 
Date/Time
CST
Temp

°C
Wind Pressure Rain
since 9am
mm
Weather Cloud Vis
km
Sea
Height
m
Swell
Dir
 
Speed
knots
Gust
knots
hPa Trend Height
m
Period
s
Dir
28/11:30pm 27.2 E 14 17 1012.7 - 6.0 - - - - - - -
28/11:00pm 27.2 E 13 15 1012.9 - 6.0 - - - - - - -
28/10:30pm 27.4 E 13 15 1012.9 - 6.0 - - - - - - -
28/10:00pm 27.0 E 10 12 1013.0 - 6.0 - - - - - - -
28/09:30pm 26.7 ESE 9 11 1012.8 - 6.0 - - - - - - -
28/09:00pm 26.7 ESE 9 11 1012.6 - 6.0 - - - - - - -
28/08:30pm 26.8 ESE 10 13 1012.3 - 6.0 - - - - - - -
28/08:00pm 26.8 ESE 10 11 1012.1 - 6.0 - - - - - - -
28/07:00pm 26.5 E 11 14 1011.6 - 6.0 - - - - - - -
28/06:30pm 26.5 E 13 15 1011.7 - 6.0 - - - - - - -
28/06:00pm 26.6 E 12 15 1011.5 - 6.0 - - - - - - -
28/05:30pm 26.5 NE 9 12 1011.6 - 3.4 - - - - - - -
28/05:00pm 26.2 NNE 10 13 1011.6 - 3.4 - - - - - - -
28/04:30pm 26.0 N 10 13 1011.1 - 3.4 - - - - - - -
28/04:00pm 25.6 N 11 13 1011.1 - 3.4 - - - - - - -
28/03:30pm 25.6 N 11 14 1011.8 - 3.4 - - - - - - -
28/03:00pm 25.3 N 15 18 1012.5 - 3.4 - - - - - - -
28/02:30pm 25.1 N 15 19 1013.1 - 3.4 - - - - - - -
28/02:04pm 25.2 N 15 25 1013.4 - 3.4 - - - - - - -
28/02:00pm 26.0 N 13 17 1013.4 - 3.4 - - - - - - -
28/01:30pm 26.3 N 10 13 1013.6 - 3.0 - - - - - - -
28/01:00pm 25.8 NNE 9 11 1013.9 - 3.0 - - - - - - -
28/12:30pm 25.6 NE 10 13 1014.2 - 3.0 - - - - - - -
28/12:00pm 25.6 NE 10 13 1014.4 - 2.6 - - - - - - -
28/11:30am 25.3 NE 12 15 1014.7 - 1.8 - - - - - - -
28/11:00am 25.3 NE 12 15 1014.8 - 0.8 - - - - - - -
28/10:30am 25.1 NE 14 19 1014.7 - 37.6 - - - - - - -
28/10:00am 24.8 NE 13 17 1014.8 - 35.6 - - - - - - -
28/09:30am 25.3 ENE 18 21 1014.3 - 34.6 - - - - - - -
28/09:00am 25.7 E 17 21 1013.7 - 33.6 - - - - - - -
28/08:30am 25.3 ENE 15 17 1013.6 - 32.0 - - - - - - -
28/08:00am 24.9 ENE 13 20 1013.3 - 31.2 - - - - - - -
28/07:30am 24.3 ENE 5 6 1012.6 - 29.6 - - - - - - -
28/07:00am 24.5 NE 14 19 1012.9 - 28.6 - - - - - - -
28/06:30am 25.5 ENE 13 19 1012.3 - 15.8 - - - - - - -
28/06:00am 27.1 ESE 19 23 1010.7 - 6.8 - - - - - - -
28/05:30am 27.5 E 18 23 1010.4 - 6.8 - - - - - - -
28/05:00am 27.8 E 17 21 1010.5 - 6.8 - - - - - - -
28/04:30am 27.5 E 18 21 1010.0 - 6.8 - - - - - - -
28/03:30am 27.7 E 16 19 1010.6 - 6.8 - - - - - - -
28/03:00am 27.4 E 18 21 1011.1 - 6.8 - - - - - - -
28/02:30am 27.4 E 17 20 1011.1 - 6.8 - - - - - - -
28/02:00am 27.2 E 18 21 1011.4 - 6.8 - - - - - - -
28/01:30am 27.7 E 21 24 1011.6 - 6.8 - - - - - - -
28/01:00am 27.2 E 17 22 1012.3 - 6.6 - - - - - - -
28/12:30am 28.1 ENE 18 22 1012.6 - 6.0 - - - - - - -
28/12:00am 27.8 ENE 18 22 1012.6 - 6.0 - - - - - - -
 
Date/Time
CST
Temp

°C
Wind Pressure Rain
since 9am
mm
Weather Cloud Vis
km
Sea
Height
m
Swell
Dir
 
Speed
knots
Gust
knots
hPa Trend Height
m
Period
s
Dir
27/11:30pm 27.9 ENE 17 21 1012.7 - 6.0 - - - - - - -
27/11:00pm 27.7 E 19 23 1012.9 - 6.0 - - - - - - -
27/10:30pm 28.1 ENE 19 23 1012.7 - 6.0 - - - - - - -
27/10:00pm 28.1 ENE 20 25 1012.7 - 6.0 - - - - - - -
27/09:30pm 28.1 NE 19 23 1012.6 - 6.0 - - - - - - -
27/09:00pm 27.9 NE 18 24 1012.2 - 6.0 - - - - - - -
27/08:57pm 28.0 NE 19 24 1012.1 - 6.0 - - - - - - -
27/08:30pm 27.8 E 21 25 1011.4 - 6.0 - - - - - - -
27/08:00pm 27.8 E 20 23 1011.2 - 5.8 - - - - - - -
27/07:30pm 27.5 E 20 24 1010.7 - 5.8 - - - - - - -
27/07:00pm 26.9 E 18 22 1010.9 - 5.6 - - - - - - -
27/06:30pm 27.1 E 17 21 1011.0 - 5.2 - - - - - - -
27/06:00pm 26.5 E 19 24 1010.4 - 5.2 - - - - - - -
27/05:30pm 26.2 E 20 26 1010.1 - 4.8 - - - - - - -
27/05:00pm 27.1 E 22 27 1010.0 - 3.8 - - - - - - -
27/04:30pm 26.7 E 24 31 1009.6 - 3.6 - - - - - - -
27/04:00pm 26.2 ENE 24 30 1009.9 - 3.6 - - - - - - -
27/03:30pm 27.2 ENE 21 25 1010.0 - 2.8 - - - - - - -
27/03:00pm 27.3 ENE 21 26 1010.2 - 2.8 - - - - - - -
27/02:30pm 27.5 ENE 22 25 1010.2 - 2.8 - - - - - - -
27/02:00pm 26.6 E 20 24 1010.5 - 2.8 - - - - - - -
27/01:30pm 26.0 E 23 27 1011.0 - 2.8 - - - - - - -
27/01:00pm 25.7 E 20 26 1011.5 - 2.4 - - - - - - -
27/12:30pm 27.3 E 21 25 1011.8 - 0.0 - - - - - - -
27/12:00pm 28.0 E 22 27 1012.1 - 0.0 - - - - - - -
27/11:30am 28.0 E 20 25 1012.3 - 0.0 - - - - - - -
27/11:00am 28.2 ESE 19 24 1012.2 - 0.0 - - - - - - -
27/10:30am 27.7 ESE 16 21 1012.2 - 0.0 - - - - - - -
27/10:00am 27.6 ESE 16 21 1012.5 - 0.0 - - - - - - -
27/09:30am 27.9 ESE 15 19 1012.5 - 0.0 - - - - - - -

Other Formats:

Comma delimited format used in spreadsheet applications
http://www.bom.gov.au/fwo/IDD60701/IDD60701.94102.axf

JavaScript Object Notation format (JSON) in row-major order
http://www.bom.gov.au/fwo/IDD60701/IDD60701.94102.json